AirNav   Air Wisconsin Up To $57,000 Bonus
 
 973 users online  

KHIG Higginsville Industrial Municipal Airport
Higginsville, Missouri, USA

GOING TO HIGGINSVILLE?


FAA INFORMATION EFFECTIVE 07 OCTOBER 2021

Location

FAA Identifier: HIG
Lat/Long: 39-04-20.8000N 093-40-38.5000W
39-04.346667N 093-40.641667W
39.0724444,-93.6773611
(estimated)
Elevation: 840 ft. / 256.0 m (surveyed)
Variation: 02E (2005)
From city: 2 miles E of HIGGINSVILLE, MO
Time zone: UTC -5 (UTC -6 during Standard Time)
Zip code: 64037

Airport Operations

Airport use: Open to the public
Control tower: no
ARTCC: KANSAS CITY CENTER
FSS: COLUMBIA FLIGHT SERVICE STATION
NOTAMs facility: COU (NOTAM-D service available)
Attendance: SEP-APR 0800-1700, MAY-AUG 0700-1900
Wind indicator: lighted
Segmented circle: no
Lights: ACTVT MIRL RY 16/34; PAPI & REIL RYS 16 & 34 - CTAF.
Beacon: white-green (lighted land airport)
Operates sunset to sunrise.

Airport Communications

CTAF/UNICOM: 122.8
WHITEMAN APPROACH: 127.45
WHITEMAN DEPARTURE: 125.925
WX AWOS-3PT at RCM (18 nm S): 119.575 (660-422-7010)
  • APCH/DEP SVC PRVDD BY KANSAS CITY ARTCC ON FREQS 135.575/323.15 (KNOB NOSTER RCAG) WHEN WHITEMAN APCH CTL CLSD.

Nearby radio navigation aids

VOR radial/distance  VOR name  Freq  Var
ANXr087/21.1NAPOLEON VORTAC114.0007E
BQSr162/34.7BRAYMER VOR/DME115.3503E

Airport Services

Fuel available: 100LL
100LL:FOR SVC AFT HRS, CALL NBRS POSTED ON TERMINAL DOOR.
Parking: hangars and tiedowns
Airframe service: MAJOR
Powerplant service: MAJOR
Bottled oxygen: NONE
Bulk oxygen: NONE

Runway Information

Runway 16/34

Dimensions: 4400 x 75 ft. / 1341 x 23 m
Surface: asphalt, in good condition
Weight bearing capacity: 
Single wheel: 12.5
Double wheel: 16.0
Runway edge lights: medium intensity
RUNWAY 16  RUNWAY 34
Latitude: 39-04.698333N39-03.996667N
Longitude: 093-40.758333W093-40.525000W
Elevation: 840.0 ft.796.0 ft.
Traffic pattern: leftleft
Runway heading: 164 magnetic, 166 true344 magnetic, 346 true
Declared distances: TORA:4400 TODA:4400 ASDA:4400 LDA:4400TORA:4400 TODA:4400 ASDA:4400 LDA:4400
Markings: nonprecision, in good conditionnonprecision, in good condition
Visual slope indicator: 4-light PAPI on left (3.00 degrees glide path)4-light PAPI on left (3.00 degrees glide path)
Runway end identifier lights: yesyes
Touchdown point: yes, no lightsyes, no lights

Airport Ownership and Management from official FAA records

Ownership: Publicly-owned
Owner: CITY OF HIGGINSVILLE
1922 MAIN ST BOX 110
HIGGINSVILLE, MO 64037
Phone 660-584-2106
Manager: CITY OF HIGGINSVILLE
11667 AIRPORT ROAD
HIGGINSVILLE, MO 64037
Phone 660-584-3339

Airport Operational Statistics

Aircraft based on the field: 16
Single engine airplanes: 13
Multi engine airplanes: 2
Helicopters: 1
    
Aircraft operations: avg 69/week *
58% transient general aviation
40% local general aviation
1% military
<1% air taxi
* for 12-month period ending 31 December 2017

Additional Remarks

A58-34 RWY 34 6-9 FT BRUSH 30-70 FT FM RWY END, 100-140 FT R.
WILDLIFE ON & INVOF ARPT.
EXTENSIVE HELICOPTER OPERATIONS.
FOR CD CTC WHITEMAN APCH AT 660-687-3132. WHEN WHITEMAN APCH IS CLSD, CTC KANSAS CITY ARTCC AT 913-254-8508.

Instrument Procedures

NOTE: All procedures below are presented as PDF files. If you need a reader for these files, you should download the free Adobe Reader.

NOT FOR NAVIGATION. Please procure official charts for flight.
FAA instrument procedures published for use from 07 October 2021 at 0901Z to 04 November 2021 at 0900z.

 
IAPs - Instrument Approach Procedures
RNAV (GPS) RWY 16   download (225KB)
RNAV (GPS) RWY 34   download (215KB)
NOTE: Special Take-Off Minimums/Departure Procedures apply   download (158KB)

Other nearby airports with instrument procedures:

KRCM - Skyhaven Airport (18 nm S)
KSZL - Whiteman Air Force Base (21 nm S)
KMHL - Marshall Memorial Municipal Airport (22 nm E)
3GV - East Kansas City Airport (25 nm W)
3EX - Excelsior Springs Memorial Airport (29 nm NW)
 
Loc | Ops | Rwys | IFR | FBO | Links
Com | Nav | Svcs | Stats | Notes
Area around KHIG (Higginsville Industrial Municipal Airport)
 
Road maps at: MapQuest Bing Google
 
Aerial photo
WARNING: Photo may not be current or correct
Aerial photo of KHIG (Higginsville Industrial Municipal Airport)
Do you have a better or more recent aerial photo of Higginsville Industrial Municipal Airport that you would like to share? If so, please send us your photo.

 
Sectional chart

 
Airport distance calculator
Flying to Higginsville Industrial Municipal Airport? Find the distance to fly.

From to KHIG

Sunrise and sunset
Times for 16-Oct-2021
 Local
(UTC-5)
 Zulu
(UTC)
Morning civil twilight06:5911:59
Sunrise07:2612:26
Sunset18:3423:34
Evening civil twilight19:0100:01

Current date and time
Zulu (UTC)  16-Oct-2021 20:26:16
Local (UTC-5)  16-Oct-2021 15:26:16
 
METAR
KRCM 
18nm S 
162015Z AUTO 30006G14KT 10SM CLR 18/M01 A3025 RMK AO2
KMHL 
22nm E 
162015Z AUTO 30012G16KT 10SM CLR 17/00 A3024 RMK AO2
KSZL 
22nm S 
161956Z 32013G19KT 10SM CLR 19/M01 A3020 RMK AO2A SLP229 T01851009 $
KDMO 
32nm SE 
161953Z AUTO 31011G21KT 10SM CLR 18/M01 A3024 RMK AO2 SLP241 T01831006
KLXT 
33nm W 
161953Z AUTO 28013G19KT 10SM CLR 18/M01 A3025 RMK AO2 SLP245 T01781006
KGPH 
33nm NW 
161755Z AUTO 28010G15KT 250V330 10SM CLR 16/00 A3028 RMK AO2
TAF
KSZL 
22nm S 
161100Z 1611/1717 28009KT 9999 SKC QNH3015INS BECMG 1614/1615 30012G18KT 9999 SKC QNH3019INS BECMG 1622/1623 30006KT 9999 SKC QNH3019INS TX18/1621Z TN04/1612Z
NOTAMs
Click for the latest NOTAMs
NOTAMs are issued by the DoD/FAA and will open in a separate window not controlled by AirNav.

 

 
 

FBO, Fuel Providers, and Aircraft Ground Support

  
 Business Name 
 
 Contact 
 
 Services / Description 
 
Fuel Prices
 
Comments
  
City of Higginsville 660-584-3339
no information available

If you are affiliated with City of Higginsville and would like to show here your services, contact info, web link, logo, and more, click here
100LL
SS $4.49 
 Updated 14-Oct-2021
 
   write
SS=Self service
Update Fuel Prices
 

Would you like to see your business listed on this page?

 If your business provides an interesting product or service to pilots, flight crews, aircraft, or users of the Higginsville Industrial Municipal Airport, you should consider listing it here.  To start the listing process, click on the button below
 
Add a business
 

Other Pages about Higginsville Industrial Municipal Airport

Update a link
 
Copyright © AirNav, LLC. All rights reserved. Privacy Policy  Contact